Time;durP1;ratioP1;P1;durP2;ratioP2;P2;SDS_P1;SDS_P2;PMS_P1;PMS_P2;Temp;Humidity;BMP_temperature;BMP_pressure;BME280_temperature;BME280_humidity;BME280_pressure;Samples;Min_cycle;Max_cycle;Signal;HPM_P1;HPM_P2
2022/10/16 00:01:14;;;;;;;8.70;2.28;;;12.80;99.90;;;;;;4852065;29;20047;-57
2022/10/16 00:03:42;;;;;;;1.23;0.90;;;12.80;99.90;;;;;;4853783;29;20120;-57
2022/10/16 00:06:10;;;;;;;1.75;0.90;;;12.80;99.90;;;;;;4850021;29;20057;-57
2022/10/16 00:08:37;;;;;;;1.83;1.00;;;12.80;99.90;;;;;;4852798;29;20750;-55
2022/10/16 00:11:14;;;;;;;4.15;0.85;;;12.80;99.90;;;;;;4852402;29;20867;-58
2022/10/16 00:13:43;;;;;;;0.60;0.60;;;12.80;99.90;;;;;;4851533;29;20045;-53
2022/10/16 00:16:10;;;;;;;3.17;0.75;;;12.90;99.90;;;;;;4846551;29;20155;-55
2022/10/16 00:18:38;;;;;;;3.15;1.02;;;12.90;99.90;;;;;;4849583;29;20053;-57
2022/10/16 00:21:11;;;;;;;3.80;0.90;;;12.90;99.90;;;;;;4853476;29;20131;-55
2022/10/16 00:23:38;;;;;;;3.13;0.88;;;12.90;99.90;;;;;;4847375;29;20042;-57
2022/10/16 00:26:09;;;;;;;1.80;0.98;;;13.00;99.90;;;;;;4850389;29;20052;-55
2022/10/16 00:28:37;;;;;;;3.72;0.95;;;13.00;99.90;;;;;;4849337;29;20140;-54
2022/10/16 00:31:10;;;;;;;0.60;0.60;;;13.00;99.90;;;;;;4846584;29;20441;-57
2022/10/16 00:33:38;;;;;;;1.33;0.63;;;13.00;99.90;;;;;;4847722;29;20117;-56
2022/10/16 00:36:07;;;;;;;3.97;0.75;;;13.10;99.90;;;;;;4848601;29;20041;-53
2022/10/16 00:38:34;;;;;;;5.43;0.90;;;13.10;99.90;;;;;;4850653;29;20059;-54
2022/10/16 00:41:01;;;;;;;;;;;13.10;99.90;;;;;;4855682;29;20880;-54
2022/10/16 00:43:36;;;;;;;3.83;0.80;;;13.10;99.90;;;;;;4849487;29;20398;-55
2022/10/16 00:46:08;;;;;;;2.67;0.60;;;13.10;99.90;;;;;;4850204;29;20623;-54
2022/10/16 00:48:35;;;;;;;2.90;0.80;;;13.10;99.90;;;;;;4855149;29;20041;-54
2022/10/16 00:51:04;;;;;;;0.65;0.60;;;13.10;99.90;;;;;;4858294;29;20041;-56
2022/10/16 00:53:31;;;;;;;1.25;1.00;;;13.00;99.90;;;;;;4852526;29;20052;-56
2022/10/16 00:55:57;;;;;;;1.55;0.77;;;13.00;99.90;;;;;;4855171;29;20084;-55
2022/10/16 00:58:24;;;;;;;2.17;0.93;;;13.00;99.90;;;;;;4850810;29;20041;-54
2022/10/16 01:00:51;;;;;;;7.80;0.70;;;13.00;99.90;;;;;;4855607;29;20045;-52
2022/10/16 01:03:22;;;;;;;;;;;12.90;99.90;;;;;;4857190;29;20065;-54
2022/10/16 01:06:21;;;;;;;0.52;0.50;;;12.90;99.90;;;;;;4852558;29;19934;-54
2022/10/16 01:09:23;;;;;;;11.85;1.10;;;12.90;99.90;;;;;;4850047;29;20063;-55
2022/10/16 01:12:00;;;;;;;2.13;0.82;;;13.00;99.90;;;;;;4832468;29;20064;-55
2022/10/16 01:14:58;;;;;;;1.98;0.82;;;12.90;99.90;;;;;;4851482;29;20045;-53
2022/10/16 01:18:03;;;;;;;1.40;0.70;;;13.00;99.90;;;;;;4853355;29;20855;-53
2022/10/16 01:20:34;;;;;;;3.10;0.80;;;13.00;99.90;;;;;;4808630;29;20096;-55
2022/10/16 01:23:33;;;;;;;5.15;0.80;;;13.00;99.90;;;;;;4845880;29;20052;-55
2022/10/16 01:26:17;;;;;;;3.47;0.65;;;13.00;99.90;;;;;;4818111;29;20156;-55
2022/10/16 01:28:57;;;;;;;7.90;0.80;;;13.10;99.90;;;;;;4846954;29;20102;-55
2022/10/16 01:31:28;;;;;;;0.70;0.52;;;13.10;99.90;;;;;;4854608;29;20722;-55
2022/10/16 01:34:05;;;;;;;3.08;0.55;;;13.20;99.90;;;;;;4852221;29;20604;-52
2022/10/16 01:36:39;;;;;;;1.77;0.88;;;13.20;99.90;;;;;;4851482;29;20057;-54
2022/10/16 01:39:10;;;;;;;8.27;0.77;;;13.20;99.90;;;;;;4850551;29;20049;-54
2022/10/16 01:41:43;;;;;;;1.92;0.73;;;13.20;99.90;;;;;;4855511;29;20105;-55
2022/10/16 01:44:23;;;;;;;4.72;0.70;;;13.30;99.90;;;;;;4849590;29;20120;-54
2022/10/16 01:46:52;;;;;;;2.47;0.70;;;13.30;99.90;;;;;;4856922;29;20160;-52
2022/10/16 01:49:22;;;;;;;5.85;0.90;;;13.30;99.90;;;;;;4852195;29;20061;-57
2022/10/16 01:51:53;;;;;;;5.20;0.70;;;13.30;99.90;;;;;;4853492;29;20053;-55
2022/10/16 01:54:22;;;;;;;3.22;0.73;;;13.30;99.90;;;;;;4850320;29;20055;-56
2022/10/16 01:56:50;;;;;;;8.88;0.70;;;13.30;99.90;;;;;;4855660;29;20044;-55
2022/10/16 01:59:20;;;;;;;0.65;0.60;;;13.30;99.90;;;;;;4851397;29;20124;-58
2022/10/16 02:01:54;;;;;;;3.22;0.82;;;13.30;99.90;;;;;;4852946;29;20049;-56
2022/10/16 02:04:50;;;;;;;4.78;0.77;;;13.30;99.90;;;;;;4851012;29;20046;-55
2022/10/16 02:07:17;;;;;;;1.35;0.70;;;13.30;99.90;;;;;;4829176;29;20081;-53
2022/10/16 02:09:44;;;;;;;3.70;0.82;;;13.30;99.90;;;;;;4856698;29;20148;-55
2022/10/16 02:12:42;;;;;;;3.88;0.65;;;13.30;99.90;;;;;;4852983;29;20049;-55
2022/10/16 02:15:09;;;;;;;2.20;0.50;;;13.30;99.90;;;;;;4846585;29;20057;-55
2022/10/16 02:17:36;;;;;;;2.70;0.50;;;13.30;99.90;;;;;;4852560;29;20051;-57
2022/10/16 02:20:03;;;;;;;;;;;13.20;99.90;;;;;;4854199;29;20159;-55
2022/10/16 02:22:36;;;;;;;5.53;0.50;;;13.20;99.90;;;;;;4853043;29;19924;-54
2022/10/16 02:25:19;;;;;;;6.32;0.73;;;13.20;99.90;;;;;;4848975;29;20212;-57
2022/10/16 02:28:17;;;;;;;0.60;0.60;;;13.20;99.90;;;;;;4852518;29;20056;-55
2022/10/16 02:30:50;;;;;;;2.53;2.25;;;13.20;99.90;;;;;;4860718;29;20140;-53
2022/10/16 02:33:20;;;;;;;0.57;0.57;;;13.20;99.90;;;;;;4851972;29;20056;-56
2022/10/16 02:35:50;;;;;;;7.72;0.95;;;13.20;99.90;;;;;;4849556;29;20063;-52
2022/10/16 02:38:19;;;;;;;5.55;0.95;;;13.20;99.90;;;;;;4851130;29;20125;-55
2022/10/16 02:40:46;;;;;;;1.73;0.70;;;13.10;99.90;;;;;;4849011;29;20721;-56
2022/10/16 02:43:13;;;;;;;1.55;1.05;;;13.10;99.90;;;;;;4848592;29;20054;-56
2022/10/16 02:45:40;;;;;;;4.93;0.80;;;13.10;99.90;;;;;;4855463;29;20049;-54
2022/10/16 02:48:06;;;;;;;;;;;13.00;99.90;;;;;;4855043;29;20157;-56
2022/10/16 02:50:33;;;;;;;0.55;0.55;;;13.00;99.90;;;;;;4853240;29;20121;-54
2022/10/16 02:53:00;;;;;;;2.03;0.88;;;13.00;99.90;;;;;;4849800;29;20053;-55
2022/10/16 02:55:27;;;;;;;1.73;0.75;;;12.90;99.90;;;;;;4849777;29;20050;-57
2022/10/16 02:57:54;;;;;;;1.05;0.73;;;12.90;99.90;;;;;;4856779;29;20050;-56
2022/10/16 03:00:21;;;;;;;3.42;0.60;;;12.90;99.90;;;;;;4853577;29;20049;-55
2022/10/16 03:02:48;;;;;;;2.28;1.02;;;12.80;99.90;;;;;;4852089;29;20037;-55
2022/10/16 03:05:15;;;;;;;;;;;12.80;99.90;;;;;;4855896;29;20128;-55
2022/10/16 03:07:42;;;;;;;7.07;1.08;;;12.80;99.90;;;;;;4852650;29;19927;-56
2022/10/16 03:10:09;;;;;;;8.48;0.82;;;12.70;99.90;;;;;;4847332;29;20053;-56
2022/10/16 03:12:36;;;;;;;6.25;1.08;;;12.70;99.90;;;;;;4847513;29;20175;-56
2022/10/16 03:15:03;;;;;;;5.25;1.00;;;12.60;99.90;;;;;;4857008;29;20076;-55
2022/10/16 03:17:31;;;;;;;1.75;0.57;;;12.60;99.90;;;;;;4853419;29;20147;-55
2022/10/16 03:19:58;;;;;;;7.68;0.80;;;12.50;99.90;;;;;;4850475;29;20037;-57
2022/10/16 03:22:25;;;;;;;;;;;12.50;99.90;;;;;;4852017;29;20072;-55
2022/10/16 03:24:52;;;;;;;2.15;0.90;;;12.50;99.90;;;;;;4850580;29;20593;-52
2022/10/16 03:27:18;;;;;;;2.13;0.90;;;12.40;99.90;;;;;;4844965;29;20113;-55
2022/10/16 03:29:45;;;;;;;;;;;12.40;99.90;;;;;;4850460;29;20463;-54
2022/10/16 03:32:12;;;;;;;1.05;0.80;;;12.30;99.90;;;;;;4851840;29;19983;-55
2022/10/16 03:34:38;;;;;;;0.93;0.73;;;12.30;99.90;;;;;;4852971;29;20420;-55
2022/10/16 03:37:05;;;;;;;;;;;12.30;99.90;;;;;;4858238;29;20869;-55
2022/10/16 03:39:32;;;;;;;3.67;1.17;;;12.30;99.90;;;;;;4850808;29;20023;-54
2022/10/16 03:41:59;;;;;;;4.00;0.80;;;12.30;99.90;;;;;;4850384;29;20045;-55
2022/10/16 03:44:25;;;;;;;;;;;12.30;99.90;;;;;;4838144;29;20049;-55
2022/10/16 03:46:52;;;;;;;1.85;0.70;;;12.30;99.90;;;;;;4859179;29;20433;-55
2022/10/16 03:49:19;;;;;;;;;;;12.30;99.90;;;;;;4853737;29;20044;-56
2022/10/16 03:51:45;;;;;;;1.23;0.70;;;12.20;99.90;;;;;;4856200;29;19928;-53
2022/10/16 03:54:12;;;;;;;;;;;12.20;99.90;;;;;;4850797;29;20049;-55
2022/10/16 03:56:39;;;;;;;21.95;1.73;;;12.20;99.90;;;;;;4854461;29;19928;-55
2022/10/16 03:59:06;;;;;;;;;;;12.10;99.90;;;;;;4847492;29;20503;-56
2022/10/16 04:01:32;;;;;;;1.40;0.70;;;12.10;99.90;;;;;;4850542;29;19969;-57
2022/10/16 04:03:59;;;;;;;6.22;0.68;;;12.10;99.90;;;;;;4852186;29;20052;-56
2022/10/16 04:06:26;;;;;;;;;;;12.10;99.90;;;;;;4857553;29;20056;-56
2022/10/16 04:08:53;;;;;;;1.13;0.90;;;12.10;99.90;;;;;;4850751;29;20030;-54
2022/10/16 04:11:19;;;;;;;3.20;0.90;;;12.00;99.90;;;;;;4850503;29;20060;-55
2022/10/16 04:13:46;;;;;;;;;;;12.00;99.90;;;;;;4854312;29;20168;-55
2022/10/16 04:16:13;;;;;;;5.03;0.70;;;12.00;99.90;;;;;;4851516;29;19934;-57
2022/10/16 04:18:39;;;;;;;;;;;12.00;99.90;;;;;;4848162;29;20149;-53
2022/10/16 04:21:07;;;;;;;2.00;0.73;;;12.10;99.90;;;;;;4853387;29;20429;-56
2022/10/16 04:23:34;;;;;;;0.95;0.80;;;12.10;99.90;;;;;;4851879;29;20582;-53
2022/10/16 04:26:01;;;;;;;2.85;0.90;;;12.00;99.90;;;;;;4857834;29;20087;-54
2022/10/16 04:28:28;;;;;;;2.88;0.50;;;12.00;99.90;;;;;;4857410;29;20445;-56
2022/10/16 04:30:55;;;;;;;0.82;0.75;;;12.00;99.90;;;;;;4854390;29;20045;-54
2022/10/16 04:33:22;;;;;;;;;;;12.00;99.90;;;;;;4859893;29;20064;-54
2022/10/16 04:35:55;;;;;;;20.67;2.92;;;12.00;99.90;;;;;;4857048;29;20706;-55
2022/10/16 04:38:22;;;;;;;1.67;1.38;;;12.00;99.90;;;;;;4853932;29;20076;-56
2022/10/16 04:40:48;;;;;;;;;;;12.00;99.90;;;;;;4852119;29;20839;-56
2022/10/16 04:43:15;;;;;;;6.07;0.98;;;12.00;99.90;;;;;;4853326;29;19923;-55
2022/10/16 04:45:42;;;;;;;;;;;12.00;99.90;;;;;;4859898;29;20045;-51
2022/10/16 04:48:08;;;;;;;3.42;0.90;;;12.00;99.90;;;;;;4858170;29;20605;-57
2022/10/16 04:50:35;;;;;;;2.25;0.60;;;11.90;99.90;;;;;;4856588;29;20081;-54
2022/10/16 04:53:06;;;;;;;3.53;0.80;;;11.90;99.90;;;;;;4854170;29;20068;-57
2022/10/16 04:55:33;;;;;;;0.63;0.63;;;11.80;99.90;;;;;;4852031;29;20473;-57
2022/10/16 04:58:00;;;;;;;;;;;11.80;99.90;;;;;;4850429;29;20056;-58
2022/10/16 05:00:26;;;;;;;2.00;1.05;;;11.80;99.90;;;;;;4853453;29;19983;-54
2022/10/16 05:02:53;;;;;;;3.80;1.52;;;11.70;99.90;;;;;;4855382;29;20054;-53
2022/10/16 05:05:20;;;;;;;;;;;11.70;99.90;;;;;;4858614;29;20050;-53
2022/10/16 05:07:49;;;;;;;1.98;1.17;;;11.70;99.90;;;;;;4853789;29;19935;-55
2022/10/16 05:10:16;;;;;;;2.38;1.52;;;11.70;99.90;;;;;;4852711;29;20102;-54
2022/10/16 05:12:43;;;;;;;5.05;1.00;;;11.70;99.90;;;;;;4852941;29;20595;-54
2022/10/16 05:15:10;;;;;;;3.88;0.98;;;11.60;99.90;;;;;;4853007;29;20053;-52
2022/10/16 05:17:37;;;;;;;2.53;0.90;;;11.60;99.90;;;;;;4851841;29;20104;-57
2022/10/16 05:20:10;;;;;;;2.65;0.80;;;11.70;99.90;;;;;;4858374;29;20848;-55
2022/10/16 05:22:37;;;;;;;8.60;0.90;;;11.70;99.90;;;;;;4857324;29;20049;-57
2022/10/16 05:25:04;;;;;;;1.52;0.77;;;11.70;99.90;;;;;;4860335;29;20468;-54
2022/10/16 05:27:31;;;;;;;4.13;1.27;;;11.70;99.90;;;;;;4848842;29;20053;-53
2022/10/16 05:29:57;;;;;;;1.45;1.00;;;11.70;99.90;;;;;;4850519;29;20073;-54
2022/10/16 05:32:24;;;;;;;1.00;0.73;;;11.70;99.90;;;;;;4856360;29;20053;-55
2022/10/16 05:34:51;;;;;;;;;;;11.70;99.90;;;;;;4862535;29;20098;-56
2022/10/16 05:37:18;;;;;;;2.67;0.73;;;11.80;99.90;;;;;;4855886;29;20522;-56
2022/10/16 05:39:45;;;;;;;5.75;0.60;;;11.80;99.90;;;;;;4856678;29;20115;-52
2022/10/16 05:42:12;;;;;;;;;;;11.90;99.90;;;;;;4853675;29;20081;-55
2022/10/16 05:44:39;;;;;;;2.33;0.80;;;11.90;99.90;;;;;;4854455;29;19927;-57
2022/10/16 05:47:05;;;;;;;;;;;11.90;99.90;;;;;;4854122;29;20049;-54
2022/10/16 05:49:32;;;;;;;6.90;0.52;;;11.90;99.90;;;;;;4853315;29;19939;-56
2022/10/16 05:52:04;;;;;;;0.75;0.73;;;11.90;99.90;;;;;;4853153;29;20142;-56
2022/10/16 05:54:31;;;;;;;3.47;0.80;;;11.90;99.90;;;;;;4854733;29;20052;-53
2022/10/16 05:56:58;;;;;;;0.95;0.70;;;12.00;99.90;;;;;;4855309;29;20112;-56
2022/10/16 05:59:25;;;;;;;;;;;12.10;99.90;;;;;;4855806;29;20052;-55
2022/10/16 06:01:53;;;;;;;2.53;0.68;;;12.20;99.90;;;;;;4856694;29;19927;-54
2022/10/16 06:04:20;;;;;;;1.45;1.35;;;12.30;99.90;;;;;;4856264;29;20061;-55
2022/10/16 06:06:46;;;;;;;;;;;12.30;99.90;;;;;;4854248;29;20049;-56
2022/10/16 06:09:13;;;;;;;3.70;0.82;;;12.30;99.90;;;;;;4855527;29;20031;-54
2022/10/16 06:11:40;;;;;;;;;;;12.30;99.90;;;;;;4852984;29;20052;-52
2022/10/16 06:14:08;;;;;;;5.55;0.90;;;12.20;99.90;;;;;;4853614;29;19963;-54
2022/10/16 06:16:37;;;;;;;2.42;0.90;;;12.30;99.90;;;;;;4854095;29;20072;-55
2022/10/16 06:19:06;;;;;;;0.80;0.80;;;12.30;99.90;;;;;;4852674;29;20670;-53
2022/10/16 06:21:33;;;;;;;2.53;0.73;;;12.30;99.90;;;;;;4855387;29;20049;-55
2022/10/16 06:24:00;;;;;;;13.80;1.30;;;12.30;99.90;;;;;;4854846;29;20504;-56
2022/10/16 06:26:29;;;;;;;8.57;0.70;;;12.30;99.90;;;;;;4847016;29;20687;-52
2022/10/16 06:28:57;;;;;;;1.10;0.80;;;12.40;99.90;;;;;;4854639;29;20060;-57
2022/10/16 06:31:27;;;;;;;0.73;0.70;;;12.40;99.90;;;;;;4853245;29;20547;-51
2022/10/16 06:33:55;;;;;;;3.05;0.68;;;12.50;99.90;;;;;;4853282;29;20463;-56
2022/10/16 06:36:23;;;;;;;2.42;0.90;;;12.50;99.90;;;;;;4848145;29;20156;-53
2022/10/16 06:38:50;;;;;;;2.63;0.75;;;12.60;99.90;;;;;;4855837;29;20041;-53
2022/10/16 06:41:21;;;;;;;;;;;12.60;99.90;;;;;;4852271;29;20135;-54
2022/10/16 06:43:48;;;;;;;1.05;0.60;;;12.70;99.90;;;;;;4851937;29;19954;-54
2022/10/16 06:46:17;;;;;;;;;;;12.80;99.90;;;;;;4853683;29;20137;-54
2022/10/16 06:48:43;;;;;;;1.33;0.65;;;12.90;99.90;;;;;;4854609;29;19933;-53
2022/10/16 06:51:13;;;;;;;8.43;0.80;;;12.90;99.90;;;;;;4851541;29;20053;-50
2022/10/16 06:53:43;;;;;;;1.70;0.98;;;13.00;99.90;;;;;;4851509;29;20041;-56
2022/10/16 06:56:30;;;;;;;0.88;0.70;;;13.00;99.90;;;;;;4853459;29;20141;-53
2022/10/16 06:58:57;;;;;;;0.90;0.77;;;13.10;99.90;;;;;;4850152;29;20460;-53
2022/10/16 07:01:24;;;;;;;;;;;13.20;99.90;;;;;;4860280;29;20056;-52
2022/10/16 07:03:52;;;;;;;4.80;0.77;;;13.30;99.90;;;;;;4849689;29;19934;-55
2022/10/16 07:06:21;;;;;;;1.52;0.73;;;13.40;99.90;;;;;;4848729;29;20049;-53
2022/10/16 07:08:48;;;;;;;1.65;0.85;;;13.40;99.90;;;;;;4853948;29;20135;-54
2022/10/16 07:11:18;;;;;;;2.15;0.73;;;13.50;99.90;;;;;;4854339;29;20044;-56
2022/10/16 07:13:46;;;;;;;2.80;0.70;;;13.60;99.90;;;;;;4848672;29;20108;-51
2022/10/16 07:16:23;;;;;;;3.33;0.63;;;13.70;99.90;;;;;;4853053;29;20067;-52
2022/10/16 07:18:51;;;;;;;0.80;0.80;;;13.70;99.90;;;;;;4848782;29;20045;-53
2022/10/16 07:21:22;;;;;;;3.85;0.75;;;13.80;99.90;;;;;;4850768;29;20136;-54
2022/10/16 07:23:54;;;;;;;0.60;0.60;;;13.80;99.90;;;;;;4850591;29;20155;-53
2022/10/16 07:26:22;;;;;;;1.85;0.70;;;13.90;99.90;;;;;;4853373;29;20156;-50
2022/10/16 07:28:49;;;;;;;0.70;0.70;;;14.00;99.90;;;;;;4852433;29;20060;-54
2022/10/16 07:31:19;;;;;;;2.22;0.60;;;14.00;99.90;;;;;;4857242;29;20148;-55
2022/10/16 07:33:47;;;;;;;6.78;0.98;;;14.10;99.90;;;;;;4852161;29;20057;-53
2022/10/16 07:36:18;;;;;;;2.63;0.52;;;14.10;99.90;;;;;;4850171;29;20706;-54
2022/10/16 07:38:46;;;;;;;1.65;0.70;;;14.20;99.90;;;;;;4852008;29;20729;-51
2022/10/16 07:41:16;;;;;;;1.20;1.02;;;14.20;99.90;;;;;;4851945;29;20153;-55
2022/10/16 07:43:47;;;;;;;0.75;0.52;;;14.30;99.90;;;;;;4847324;29;20560;-54
2022/10/16 07:46:14;;;;;;;3.50;0.88;;;14.30;99.90;;;;;;4851807;29;20049;-55
2022/10/16 07:48:45;;;;;;;7.43;1.45;;;14.40;99.90;;;;;;4854875;29;20052;-53
2022/10/16 07:51:13;;;;;;;0.65;0.65;;;14.40;99.90;;;;;;4852353;29;20417;-56
2022/10/16 07:53:40;;;;;;;3.33;0.95;;;14.50;99.90;;;;;;4852352;29;20385;-53
2022/10/16 07:56:08;;;;;;;2.05;0.70;;;14.60;99.90;;;;;;4849567;29;20186;-52
2022/10/16 07:58:38;;;;;;;5.72;0.85;;;14.60;99.90;;;;;;4853715;29;20143;-56
2022/10/16 08:01:07;;;;;;;0.60;0.60;;;14.70;99.90;;;;;;4853422;29;20044;-54
2022/10/16 08:03:35;;;;;;;4.10;0.80;;;14.80;99.90;;;;;;4848371;29;20049;-50
2022/10/16 08:06:03;;;;;;;3.60;0.70;;;14.90;99.90;;;;;;4859238;29;20041;-54
2022/10/16 08:08:30;;;;;;;1.65;0.50;;;14.90;99.90;;;;;;4850422;29;20049;-52
2022/10/16 08:10:56;;;;;;;;;;;15.00;99.90;;;;;;4853559;29;20045;-53
2022/10/16 08:13:23;;;;;;;0.88;0.60;;;15.10;99.90;;;;;;4854103;29;19932;-51
2022/10/16 08:15:50;;;;;;;;;;;15.20;99.90;;;;;;4849484;29;20053;-53
2022/10/16 08:18:17;;;;;;;0.60;0.60;;;15.20;99.90;;;;;;4851902;29;19971;-53
2022/10/16 08:20:44;;;;;;;1.70;0.95;;;15.20;99.90;;;;;;4854746;29;20072;-54
2022/10/16 08:23:11;;;;;;;;;;;15.30;99.90;;;;;;4852492;29;20587;-54
2022/10/16 08:25:39;;;;;;;1.70;0.70;;;15.30;99.90;;;;;;4853229;29;20045;-57
2022/10/16 08:28:08;;;;;;;1.10;0.60;;;15.40;99.90;;;;;;4847265;29;20156;-52
2022/10/16 08:30:35;;;;;;;1.83;1.20;;;15.90;99.90;;;;;;4852117;29;20053;-53
2022/10/16 08:33:03;;;;;;;2.58;1.02;;;16.50;99.90;;;;;;4849959;29;20084;-55
2022/10/16 08:35:30;;;;;;;2.45;0.90;;;17.20;99.90;;;;;;4847166;29;20121;-53
2022/10/16 08:37:57;;;;;;;2.08;0.90;;;17.90;99.90;;;;;;4852733;29;20033;-56
2022/10/16 08:40:25;;;;;;;;;;;18.60;99.90;;;;;;4852860;29;20135;-52
2022/10/16 08:43:12;;;;;;;1.27;0.90;;;19.30;99.90;;;;;;4850343;29;19939;-52
2022/10/16 08:46:03;;;;;;;6.00;1.13;;;20.00;99.90;;;;;;4851404;29;20041;-54
2022/10/16 08:48:40;;;;;;;1.10;0.98;;;20.70;99.90;;;;;;4852008;29;20157;-54
2022/10/16 08:51:10;;;;;;;3.50;0.98;;;21.40;99.90;;;;;;4853549;29;20060;-55
2022/10/16 08:53:57;;;;;;;6.70;1.10;;;21.90;99.50;;;;;;4856575;29;20076;-55
2022/10/16 08:56:25;;;;;;;3.63;1.10;;;22.40;91.60;;;;;;4848487;29;20060;-56
2022/10/16 08:58:54;;;;;;;1.90;0.80;;;22.80;91.30;;;;;;4852472;29;20077;-56
2022/10/16 09:01:40;;;;;;;1.45;0.65;;;23.20;92.40;;;;;;4852248;29;20704;-55
2022/10/16 09:04:13;;;;;;;2.60;0.63;;;23.80;83.80;;;;;;4847877;29;20064;-56
2022/10/16 09:07:17;;;;;;;0.98;0.88;;;24.10;75.50;;;;;;4849557;29;20140;-54
2022/10/16 09:09:58;;;;;;;1.25;0.90;;;24.30;76.30;;;;;;4824121;29;20048;-57
2022/10/16 09:12:36;;;;;;;3.50;1.05;;;24.60;72.40;;;;;;4859050;29;20052;-58
2022/10/16 09:15:18;;;;;;;1.70;0.77;;;24.90;71.90;;;;;;4850183;29;20049;-56
2022/10/16 09:17:48;;;;;;;1.55;0.80;;;25.10;69.20;;;;;;4858170;29;20048;-55
2022/10/16 09:20:23;;;;;;;0.70;0.70;;;25.40;67.80;;;;;;4856343;29;20216;-56
2022/10/16 09:23:13;;;;;;;4.40;1.13;;;25.80;67.20;;;;;;4854492;29;20455;-56
2022/10/16 09:25:44;;;;;;;1.83;0.60;;;26.00;59.80;;;;;;4849904;29;20160;-54
2022/10/16 09:28:11;;;;;;;1.65;1.55;;;26.30;61.10;;;;;;4854505;29;20403;-55
2022/10/16 09:30:39;;;;;;;1.13;1.02;;;26.40;59.30;;;;;;4854652;29;20060;-56
2022/10/16 09:33:09;;;;;;;3.58;1.08;;;26.60;60.70;;;;;;4852979;29;20063;-56
2022/10/16 09:35:37;;;;;;;1.17;0.82;;;26.80;57.70;;;;;;4856578;29;20068;-58
2022/10/16 09:38:05;;;;;;;1.05;0.85;;;26.90;56.80;;;;;;4854169;29;20050;-58
2022/10/16 09:40:41;;;;;;;1.05;0.82;;;27.00;52.80;;;;;;4852111;29;20051;-57
2022/10/16 09:43:30;;;;;;;0.80;0.80;;;27.10;54.70;;;;;;4855528;29;20045;-57
2022/10/16 09:46:03;;;;;;;6.38;1.42;;;27.20;52.00;;;;;;4852251;29;20078;-57
2022/10/16 09:48:39;;;;;;;1.83;1.38;;;27.30;51.40;;;;;;4851683;29;20041;-57
2022/10/16 09:51:18;;;;;;;2.83;1.15;;;27.40;51.50;;;;;;4853055;29;20516;-52
2022/10/16 09:53:46;;;;;;;4.22;1.02;;;27.50;52.30;;;;;;4855245;29;20049;-56
2022/10/16 09:56:32;;;;;;;4.38;1.30;;;27.60;53.50;;;;;;4855501;29;20171;-55
2022/10/16 09:59:19;;;;;;;3.08;0.93;;;27.70;53.10;;;;;;4852598;29;20079;-57
2022/10/16 10:01:51;;;;;;;6.43;1.42;;;27.80;52.60;;;;;;4858461;29;20136;-56
2022/10/16 10:04:19;;;;;;;1.27;1.10;;;27.80;52.40;;;;;;4856010;29;20562;-56
2022/10/16 10:06:48;;;;;;;2.85;1.27;;;27.80;52.60;;;;;;4856779;29;20053;-53
2022/10/16 10:09:19;;;;;;;2.60;1.20;;;27.80;53.20;;;;;;4851758;29;20053;-54
2022/10/16 10:11:58;;;;;;;5.28;1.45;;;28.00;54.40;;;;;;4857903;29;20051;-56
2022/10/16 10:14:39;;;;;;;4.40;1.08;;;28.20;55.30;;;;;;4849639;29;20069;-55
2022/10/16 10:17:09;;;;;;;2.05;1.35;;;28.30;54.00;;;;;;4855233;29;20894;-56
2022/10/16 10:19:51;;;;;;;1.50;1.10;;;28.40;55.10;;;;;;4851192;29;20579;-55
2022/10/16 10:22:21;;;;;;;1.90;1.20;;;28.40;54.70;;;;;;4853937;29;20049;-53
2022/10/16 10:24:59;;;;;;;2.65;0.90;;;28.40;54.80;;;;;;4856435;29;20623;-55
2022/10/16 10:28:14;;;;;;;7.45;0.80;;;28.50;53.30;;;;;;4848497;29;20057;-54
2022/10/16 10:30:41;;;;;;;1.10;0.70;;;28.60;51.00;;;;;;4853678;29;20165;-57
2022/10/16 10:33:53;;;;;;;1.40;0.98;;;28.90;52.80;;;;;;4851369;29;20049;-55
2022/10/16 10:36:37;;;;;;;1.00;0.90;;;29.20;52.30;;;;;;4834423;29;20053;-53
2022/10/16 10:39:04;;;;;;;1.75;0.50;;;29.30;53.80;;;;;;4853374;29;20762;-54
2022/10/16 10:42:08;;;;;;;2.80;0.80;;;29.20;51.60;;;;;;4854940;29;20139;-56
2022/10/16 10:45:09;;;;;;;0.98;0.63;;;29.20;53.40;;;;;;4853533;29;20052;-56
2022/10/16 10:47:39;;;;;;;1.67;0.80;;;29.20;52.10;;;;;;4853282;29;20076;-53
2022/10/16 10:50:10;;;;;;;1.52;0.80;;;29.20;51.60;;;;;;4852618;29;20070;-55
2022/10/16 10:53:09;;;;;;;3.50;0.75;;;29.20;51.60;;;;;;4856466;29;20080;-55
2022/10/16 10:55:47;;;;;;;1.20;0.77;;;29.20;52.60;;;;;;4853611;29;20293;-58
2022/10/16 10:58:29;;;;;;;1.50;0.95;;;29.30;52.30;;;;;;4856992;29;20487;-57
2022/10/16 11:01:17;;;;;;;2.22;0.88;;;29.20;52.10;;;;;;4852825;29;20037;-56
2022/10/16 11:03:53;;;;;;;2.80;0.70;;;29.10;52.70;;;;;;4853996;29;20540;-54
2022/10/16 11:06:27;;;;;;;1.08;0.65;;;29.00;52.60;;;;;;4855648;29;20045;-51
2022/10/16 11:09:02;;;;;;;2.33;1.02;;;29.10;52.30;;;;;;4850178;29;20551;-54
2022/10/16 11:11:37;;;;;;;5.43;1.25;;;29.20;52.10;;;;;;4848609;29;20397;-56
2022/10/16 11:14:40;;;;;;;1.73;0.80;;;29.20;51.00;;;;;;4851767;29;20107;-55
2022/10/16 11:17:21;;;;;;;0.80;0.80;;;29.30;50.90;;;;;;4836312;29;20495;-57
2022/10/16 11:20:04;;;;;;;7.07;1.65;;;29.50;50.30;;;;;;4857514;29;20044;-55
2022/10/16 11:22:37;;;;;;;5.25;0.90;;;29.60;50.10;;;;;;4841445;29;20116;-56
2022/10/16 11:25:32;;;;;;;0.50;0.50;;;29.70;49.60;;;;;;4854607;29;20156;-55
2022/10/16 11:28:16;;;;;;;0.80;0.80;;;29.70;48.40;;;;;;4855511;29;20073;-54
2022/10/16 11:30:50;;;;;;;4.28;1.00;;;29.70;50.00;;;;;;4851225;29;20124;-54
2022/10/16 11:33:31;;;;;;;1.10;0.88;;;29.70;49.40;;;;;;4845716;29;20123;-54
2022/10/16 11:36:19;;;;;;;2.80;1.05;;;29.70;50.40;;;;;;4850576;29;20052;-57
2022/10/16 11:38:58;;;;;;;2.83;0.80;;;29.70;49.70;;;;;;4832373;29;20052;-58
2022/10/16 11:41:52;;;;;;;2.03;1.08;;;29.70;50.00;;;;;;4852706;29;20076;-56
2022/10/16 11:44:54;;;;;;;2.28;0.88;;;29.80;49.40;;;;;;4851741;29;20074;-55
2022/10/16 11:47:30;;;;;;;2.28;0.98;;;29.80;50.10;;;;;;4844049;29;20563;-56
2022/10/16 11:50:22;;;;;;;2.63;0.82;;;29.70;49.40;;;;;;4858276;29;20052;-58
2022/10/16 11:53:00;;;;;;;3.65;0.80;;;29.70;48.10;;;;;;4849025;29;20178;-57
2022/10/16 11:55:34;;;;;;;2.42;0.77;;;29.60;47.90;;;;;;4856917;29;20055;-56
2022/10/16 11:58:08;;;;;;;2.70;0.65;;;29.50;47.40;;;;;;4851701;29;20136;-55
2022/10/16 12:01:07;;;;;;;1.10;0.90;;;29.50;46.90;;;;;;4856121;29;20044;-58
2022/10/16 12:03:46;;;;;;;5.70;0.73;;;29.60;46.90;;;;;;4849432;29;20048;-57
2022/10/16 12:06:36;;;;;;;0.50;0.50;;;29.60;47.50;;;;;;4852274;29;20602;-58
2022/10/16 12:09:03;;;;;;;0.55;0.55;;;29.70;46.40;;;;;;4853741;29;20125;-53
2022/10/16 12:11:36;;;;;;;4.18;0.50;;;29.70;45.40;;;;;;4851408;29;20861;-56
2022/10/16 12:14:12;;;;;;;1.00;0.80;;;29.70;45.80;;;;;;4852599;29;20692;-56
2022/10/16 12:16:51;;;;;;;2.43;0.80;;;29.60;47.10;;;;;;4856211;29;20591;-58
2022/10/16 12:19:19;;;;;;;0.60;0.60;;;29.50;47.00;;;;;;4852183;29;20594;-57
2022/10/16 12:21:46;;;;;;;4.20;0.75;;;29.40;46.20;;;;;;4852560;29;20155;-58
2022/10/16 12:24:30;;;;;;;7.07;0.90;;;29.20;45.80;;;;;;4851712;29;20055;-59
2022/10/16 12:26:58;;;;;;;3.38;0.57;;;29.10;46.30;;;;;;4852067;29;20101;-54
2022/10/16 12:29:35;;;;;;;2.95;0.50;;;29.00;45.20;;;;;;4848706;29;20073;-56
2022/10/16 12:32:05;;;;;;;0.70;0.70;;;29.00;46.10;;;;;;4851709;29;20288;-56
2022/10/16 12:34:40;;;;;;;0.60;0.60;;;29.00;45.70;;;;;;4852451;29;20169;-57
2022/10/16 12:37:21;;;;;;;0.50;0.50;;;29.00;45.30;;;;;;4848429;29;20049;-58
2022/10/16 12:39:48;;;;;;;1.20;0.60;;;29.00;45.70;;;;;;4854453;29;20147;-58
2022/10/16 12:42:26;;;;;;;3.92;0.75;;;28.90;45.30;;;;;;4851223;29;20080;-54
2022/10/16 12:44:54;;;;;;;2.63;0.75;;;28.80;45.10;;;;;;4851344;29;20097;-54
2022/10/16 12:47:46;;;;;;;2.63;0.60;;;28.70;45.90;;;;;;4858465;29;20045;-55
2022/10/16 12:50:43;;;;;;;2.80;0.70;;;28.70;45.20;;;;;;4856776;29;20054;-55
2022/10/16 12:53:24;;;;;;;0.50;0.50;;;28.50;43.90;;;;;;4842169;29;20145;-57
2022/10/16 12:56:12;;;;;;;0.43;0.43;;;28.40;44.50;;;;;;4854525;29;20110;-54
2022/10/16 12:58:46;;;;;;;3.42;0.70;;;28.40;45.20;;;;;;4849968;29;20056;-55
2022/10/16 13:01:39;;;;;;;5.65;0.80;;;28.30;44.80;;;;;;4857074;29;20611;-55
2022/10/16 13:04:34;;;;;;;0.45;0.45;;;28.10;46.00;;;;;;4862386;29;20165;-54
2022/10/16 13:07:04;;;;;;;1.75;0.50;;;28.00;48.00;;;;;;4856897;29;20052;-57
2022/10/16 13:09:48;;;;;;;1.10;0.60;;;27.80;44.80;;;;;;4853561;29;20698;-55
2022/10/16 13:12:15;;;;;;;0.40;0.35;;;27.60;45.20;;;;;;4856257;29;20592;-56
2022/10/16 13:15:11;;;;;;;0.47;0.40;;;27.20;47.20;;;;;;4858413;29;20048;-55
2022/10/16 13:17:43;;;;;;;1.92;0.57;;;26.80;47.40;;;;;;4859091;29;20053;-56
2022/10/16 13:20:42;;;;;;;0.52;0.50;;;26.50;48.20;;;;;;4857766;29;20097;-57
2022/10/16 13:23:29;;;;;;;1.52;0.70;;;26.20;49.50;;;;;;4860855;29;20195;-56
2022/10/16 13:26:12;;;;;;;1.08;0.45;;;25.90;48.60;;;;;;4850685;29;20086;-55